sensor_id;sensor_type;location;lat;lon;timestamp;temperature;humidity
21246;DHT22;10781;50.928;4.440;2024-02-04T00:01:25;10.90;99.90
21246;DHT22;10781;50.928;4.440;2024-02-04T00:03:51;11.00;99.90
21246;DHT22;10781;50.928;4.440;2024-02-04T00:06:17;10.90;99.90
21246;DHT22;10781;50.928;4.440;2024-02-04T00:08:42;11.00;99.90
21246;DHT22;10781;50.928;4.440;2024-02-04T00:11:08;10.90;99.90
21246;DHT22;10781;50.928;4.440;2024-02-04T00:13:37;11.00;99.90
21246;DHT22;10781;50.928;4.440;2024-02-04T00:16:03;10.90;99.90
21246;DHT22;10781;50.928;4.440;2024-02-04T00:18:29;10.90;99.90
21246;DHT22;10781;50.928;4.440;2024-02-04T00:20:54;10.80;99.90
21246;DHT22;10781;50.928;4.440;2024-02-04T00:23:20;10.70;99.90
21246;DHT22;10781;50.928;4.440;2024-02-04T00:25:46;10.80;99.90
21246;DHT22;10781;50.928;4.440;2024-02-04T00:28:11;10.80;99.90
21246;DHT22;10781;50.928;4.440;2024-02-04T00:30:40;10.90;99.90
21246;DHT22;10781;50.928;4.440;2024-02-04T00:33:06;10.90;99.90
21246;DHT22;10781;50.928;4.440;2024-02-04T00:35:31;10.90;99.90
21246;DHT22;10781;50.928;4.440;2024-02-04T00:37:57;10.90;99.90
21246;DHT22;10781;50.928;4.440;2024-02-04T00:40:23;10.90;99.90
21246;DHT22;10781;50.928;4.440;2024-02-04T00:42:49;10.90;99.90
21246;DHT22;10781;50.928;4.440;2024-02-04T00:45:14;10.90;99.90
21246;DHT22;10781;50.928;4.440;2024-02-04T00:47:41;10.80;99.90
21246;DHT22;10781;50.928;4.440;2024-02-04T00:50:07;10.80;99.90
21246;DHT22;10781;50.928;4.440;2024-02-04T00:52:33;10.80;99.90
21246;DHT22;10781;50.928;4.440;2024-02-04T00:54:59;10.80;99.90
21246;DHT22;10781;50.928;4.440;2024-02-04T00:57:24;10.80;99.90
21246;DHT22;10781;50.928;4.440;2024-02-04T00:59:50;10.70;99.90
21246;DHT22;10781;50.928;4.440;2024-02-04T01:02:16;10.80;99.90
21246;DHT22;10781;50.928;4.440;2024-02-04T01:04:41;10.80;99.90
21246;DHT22;10781;50.928;4.440;2024-02-04T01:07:07;10.80;99.90
21246;DHT22;10781;50.928;4.440;2024-02-04T01:09:33;10.90;99.90
21246;DHT22;10781;50.928;4.440;2024-02-04T01:11:58;10.90;99.90
21246;DHT22;10781;50.928;4.440;2024-02-04T01:14:24;10.90;99.90
21246;DHT22;10781;50.928;4.440;2024-02-04T01:16:50;10.90;99.90
21246;DHT22;10781;50.928;4.440;2024-02-04T01:19:15;10.90;99.90
21246;DHT22;10781;50.928;4.440;2024-02-04T01:21:41;11.00;99.90
21246;DHT22;10781;50.928;4.440;2024-02-04T01:24:07;11.00;99.90
21246;DHT22;10781;50.928;4.440;2024-02-04T01:26:35;11.00;99.90
21246;DHT22;10781;50.928;4.440;2024-02-04T01:29:01;11.00;99.90
21246;DHT22;10781;50.928;4.440;2024-02-04T01:31:27;11.10;99.90
21246;DHT22;10781;50.928;4.440;2024-02-04T01:33:53;11.10;99.90
21246;DHT22;10781;50.928;4.440;2024-02-04T01:36:18;11.10;99.90
21246;DHT22;10781;50.928;4.440;2024-02-04T01:38:44;11.00;99.90
21246;DHT22;10781;50.928;4.440;2024-02-04T01:41:09;11.00;99.90
21246;DHT22;10781;50.928;4.440;2024-02-04T01:43:35;10.90;99.90
21246;DHT22;10781;50.928;4.440;2024-02-04T01:46:01;10.90;99.90
21246;DHT22;10781;50.928;4.440;2024-02-04T01:48:27;11.00;99.90
21246;DHT22;10781;50.928;4.440;2024-02-04T01:50:54;11.00;99.90
21246;DHT22;10781;50.928;4.440;2024-02-04T01:53:22;11.00;99.90
21246;DHT22;10781;50.928;4.440;2024-02-04T01:55:49;11.00;99.90
21246;DHT22;10781;50.928;4.440;2024-02-04T01:58:15;11.00;99.90
21246;DHT22;10781;50.928;4.440;2024-02-04T02:00:41;11.00;99.90
21246;DHT22;10781;50.928;4.440;2024-02-04T02:03:07;11.00;99.90
21246;DHT22;10781;50.928;4.440;2024-02-04T02:05:36;11.00;99.90
21246;DHT22;10781;50.928;4.440;2024-02-04T02:08:02;11.10;99.90
21246;DHT22;10781;50.928;4.440;2024-02-04T02:10:28;11.10;99.90
21246;DHT22;10781;50.928;4.440;2024-02-04T02:12:59;11.10;99.90
21246;DHT22;10781;50.928;4.440;2024-02-04T02:15:30;11.10;99.90
21246;DHT22;10781;50.928;4.440;2024-02-04T02:18:04;11.00;99.90
21246;DHT22;10781;50.928;4.440;2024-02-04T02:21:02;11.00;99.90
21246;DHT22;10781;50.928;4.440;2024-02-04T02:26:25;11.10;99.90
21246;DHT22;10781;50.928;4.440;2024-02-04T02:28:51;11.00;99.90
21246;DHT22;10781;50.928;4.440;2024-02-04T02:31:17;11.00;99.90
21246;DHT22;10781;50.928;4.440;2024-02-04T02:33:42;11.10;99.90
21246;DHT22;10781;50.928;4.440;2024-02-04T02:36:13;11.10;99.90
21246;DHT22;10781;50.928;4.440;2024-02-04T02:39:10;11.00;99.90
21246;DHT22;10781;50.928;4.440;2024-02-04T02:41:38;11.00;99.90
21246;DHT22;10781;50.928;4.440;2024-02-04T02:44:05;11.10;99.90
21246;DHT22;10781;50.928;4.440;2024-02-04T02:46:32;11.10;99.90
21246;DHT22;10781;50.928;4.440;2024-02-04T02:48:58;11.10;99.90
21246;DHT22;10781;50.928;4.440;2024-02-04T02:51:24;11.20;99.90
21246;DHT22;10781;50.928;4.440;2024-02-04T02:53:50;11.30;99.90
21246;DHT22;10781;50.928;4.440;2024-02-04T02:56:15;11.20;99.90
21246;DHT22;10781;50.928;4.440;2024-02-04T02:58:41;11.20;99.90
21246;DHT22;10781;50.928;4.440;2024-02-04T03:01:06;11.20;99.90
21246;DHT22;10781;50.928;4.440;2024-02-04T03:03:32;11.00;99.90
21246;DHT22;10781;50.928;4.440;2024-02-04T03:05:58;11.10;99.90
21246;DHT22;10781;50.928;4.440;2024-02-04T03:08:24;11.20;99.90
21246;DHT22;10781;50.928;4.440;2024-02-04T03:10:49;11.10;99.90
21246;DHT22;10781;50.928;4.440;2024-02-04T03:13:15;11.10;99.90
21246;DHT22;10781;50.928;4.440;2024-02-04T03:15:41;11.20;99.90
21246;DHT22;10781;50.928;4.440;2024-02-04T03:18:08;11.10;99.90
21246;DHT22;10781;50.928;4.440;2024-02-04T03:20:33;11.00;99.90
21246;DHT22;10781;50.928;4.440;2024-02-04T03:22:59;11.10;99.90
21246;DHT22;10781;50.928;4.440;2024-02-04T03:25:25;11.10;99.90
21246;DHT22;10781;50.928;4.440;2024-02-04T03:27:52;11.00;99.90
21246;DHT22;10781;50.928;4.440;2024-02-04T03:30:18;11.10;99.90
21246;DHT22;10781;50.928;4.440;2024-02-04T03:32:44;11.00;99.90
21246;DHT22;10781;50.928;4.440;2024-02-04T03:35:09;11.00;99.90
21246;DHT22;10781;50.928;4.440;2024-02-04T03:37:35;11.00;99.90
21246;DHT22;10781;50.928;4.440;2024-02-04T03:40:00;11.00;99.90
21246;DHT22;10781;50.928;4.440;2024-02-04T03:42:26;11.00;99.90
21246;DHT22;10781;50.928;4.440;2024-02-04T03:44:52;11.00;99.90
21246;DHT22;10781;50.928;4.440;2024-02-04T03:47:17;11.00;99.90
21246;DHT22;10781;50.928;4.440;2024-02-04T03:49:43;11.00;99.90
21246;DHT22;10781;50.928;4.440;2024-02-04T03:52:08;11.00;99.90
21246;DHT22;10781;50.928;4.440;2024-02-04T03:54:34;11.00;99.90
21246;DHT22;10781;50.928;4.440;2024-02-04T03:56:59;10.90;99.90
21246;DHT22;10781;50.928;4.440;2024-02-04T03:59:25;11.00;99.90
21246;DHT22;10781;50.928;4.440;2024-02-04T04:01:51;10.90;99.90
21246;DHT22;10781;50.928;4.440;2024-02-04T04:04:18;11.10;99.90
21246;DHT22;10781;50.928;4.440;2024-02-04T04:06:45;11.20;99.90
21246;DHT22;10781;50.928;4.440;2024-02-04T04:09:13;11.10;99.90
21246;DHT22;10781;50.928;4.440;2024-02-04T04:11:39;11.10;99.90
21246;DHT22;10781;50.928;4.440;2024-02-04T04:14:04;11.10;99.90
21246;DHT22;10781;50.928;4.440;2024-02-04T04:16:30;11.10;99.90
21246;DHT22;10781;50.928;4.440;2024-02-04T04:18:56;11.20;99.90
21246;DHT22;10781;50.928;4.440;2024-02-04T04:21:23;11.30;99.90
21246;DHT22;10781;50.928;4.440;2024-02-04T04:23:49;11.30;99.90
21246;DHT22;10781;50.928;4.440;2024-02-04T04:26:17;11.20;99.90
21246;DHT22;10781;50.928;4.440;2024-02-04T04:28:43;11.20;99.90
21246;DHT22;10781;50.928;4.440;2024-02-04T04:31:09;11.20;99.90
21246;DHT22;10781;50.928;4.440;2024-02-04T04:33:36;11.20;99.90
21246;DHT22;10781;50.928;4.440;2024-02-04T04:36:02;11.10;99.90
21246;DHT22;10781;50.928;4.440;2024-02-04T04:38:27;11.10;99.90
21246;DHT22;10781;50.928;4.440;2024-02-04T04:40:56;11.00;99.90
21246;DHT22;10781;50.928;4.440;2024-02-04T04:43:21;11.00;99.90
21246;DHT22;10781;50.928;4.440;2024-02-04T04:45:47;11.00;99.90
21246;DHT22;10781;50.928;4.440;2024-02-04T04:48:12;11.10;99.90
21246;DHT22;10781;50.928;4.440;2024-02-04T04:50:38;11.00;99.90
21246;DHT22;10781;50.928;4.440;2024-02-04T04:53:04;11.10;99.90
21246;DHT22;10781;50.928;4.440;2024-02-04T04:55:29;11.10;99.90
21246;DHT22;10781;50.928;4.440;2024-02-04T04:57:55;11.10;99.90
21246;DHT22;10781;50.928;4.440;2024-02-04T05:00:21;11.00;99.90
21246;DHT22;10781;50.928;4.440;2024-02-04T05:02:46;11.00;99.90
21246;DHT22;10781;50.928;4.440;2024-02-04T05:05:13;11.10;99.90
21246;DHT22;10781;50.928;4.440;2024-02-04T05:07:40;11.10;99.90
21246;DHT22;10781;50.928;4.440;2024-02-04T05:10:06;11.10;99.90
21246;DHT22;10781;50.928;4.440;2024-02-04T05:12:33;11.10;99.90
21246;DHT22;10781;50.928;4.440;2024-02-04T05:14:59;11.20;99.90
21246;DHT22;10781;50.928;4.440;2024-02-04T05:17:26;11.20;99.90
21246;DHT22;10781;50.928;4.440;2024-02-04T05:19:52;11.20;99.90
21246;DHT22;10781;50.928;4.440;2024-02-04T05:22:17;11.20;99.90
21246;DHT22;10781;50.928;4.440;2024-02-04T05:24:43;11.20;99.90
21246;DHT22;10781;50.928;4.440;2024-02-04T05:27:08;11.20;99.90
21246;DHT22;10781;50.928;4.440;2024-02-04T05:29:34;11.10;99.90
21246;DHT22;10781;50.928;4.440;2024-02-04T05:32:00;11.00;99.90
21246;DHT22;10781;50.928;4.440;2024-02-04T05:34:25;11.00;99.90
21246;DHT22;10781;50.928;4.440;2024-02-04T05:36:51;11.00;99.90
21246;DHT22;10781;50.928;4.440;2024-02-04T05:39:17;11.10;99.90
21246;DHT22;10781;50.928;4.440;2024-02-04T05:41:43;11.10;99.90
21246;DHT22;10781;50.928;4.440;2024-02-04T05:44:09;11.20;99.90
21246;DHT22;10781;50.928;4.440;2024-02-04T05:46:38;11.20;99.90
21246;DHT22;10781;50.928;4.440;2024-02-04T05:49:04;11.10;99.90
21246;DHT22;10781;50.928;4.440;2024-02-04T05:51:32;11.20;99.90
21246;DHT22;10781;50.928;4.440;2024-02-04T05:53:58;11.20;99.90
21246;DHT22;10781;50.928;4.440;2024-02-04T05:56:24;11.10;99.90
21246;DHT22;10781;50.928;4.440;2024-02-04T05:58:50;11.10;99.90
21246;DHT22;10781;50.928;4.440;2024-02-04T06:01:16;11.00;99.90
21246;DHT22;10781;50.928;4.440;2024-02-04T06:03:43;11.00;99.90
21246;DHT22;10781;50.928;4.440;2024-02-04T06:06:15;11.00;99.90
21246;DHT22;10781;50.928;4.440;2024-02-04T06:08:42;11.00;99.90
21246;DHT22;10781;50.928;4.440;2024-02-04T06:11:10;11.10;99.90
21246;DHT22;10781;50.928;4.440;2024-02-04T06:13:40;11.10;99.90
21246;DHT22;10781;50.928;4.440;2024-02-04T06:16:05;11.10;99.90
21246;DHT22;10781;50.928;4.440;2024-02-04T06:18:31;11.10;99.90
21246;DHT22;10781;50.928;4.440;2024-02-04T06:20:57;11.10;99.90
21246;DHT22;10781;50.928;4.440;2024-02-04T06:23:22;11.00;99.90
21246;DHT22;10781;50.928;4.440;2024-02-04T06:25:48;11.10;99.90
21246;DHT22;10781;50.928;4.440;2024-02-04T06:28:14;11.00;99.90
21246;DHT22;10781;50.928;4.440;2024-02-04T06:30:39;11.10;99.90
21246;DHT22;10781;50.928;4.440;2024-02-04T06:33:05;11.20;99.90
21246;DHT22;10781;50.928;4.440;2024-02-04T06:35:32;11.10;99.90
21246;DHT22;10781;50.928;4.440;2024-02-04T06:37:57;11.00;99.90
21246;DHT22;10781;50.928;4.440;2024-02-04T06:40:23;11.00;99.90
21246;DHT22;10781;50.928;4.440;2024-02-04T06:42:48;11.00;99.90
21246;DHT22;10781;50.928;4.440;2024-02-04T06:45:17;11.00;99.90
21246;DHT22;10781;50.928;4.440;2024-02-04T06:47:45;11.00;99.90
21246;DHT22;10781;50.928;4.440;2024-02-04T06:50:14;11.00;99.90
21246;DHT22;10781;50.928;4.440;2024-02-04T06:52:42;11.10;99.90
21246;DHT22;10781;50.928;4.440;2024-02-04T06:55:11;11.00;99.90
21246;DHT22;10781;50.928;4.440;2024-02-04T06:57:37;11.00;99.90
21246;DHT22;10781;50.928;4.440;2024-02-04T07:00:03;11.00;99.90
21246;DHT22;10781;50.928;4.440;2024-02-04T07:02:34;11.00;99.90
21246;DHT22;10781;50.928;4.440;2024-02-04T07:05:00;11.00;99.90
21246;DHT22;10781;50.928;4.440;2024-02-04T07:07:25;11.00;99.90
21246;DHT22;10781;50.928;4.440;2024-02-04T07:09:51;11.00;99.90
21246;DHT22;10781;50.928;4.440;2024-02-04T07:12:16;11.00;99.90
21246;DHT22;10781;50.928;4.440;2024-02-04T07:14:42;11.00;99.90
21246;DHT22;10781;50.928;4.440;2024-02-04T07:17:09;11.00;99.90
21246;DHT22;10781;50.928;4.440;2024-02-04T07:19:37;11.10;99.90
21246;DHT22;10781;50.928;4.440;2024-02-04T07:22:03;11.10;99.90
21246;DHT22;10781;50.928;4.440;2024-02-04T07:24:29;11.00;99.90
21246;DHT22;10781;50.928;4.440;2024-02-04T07:26:54;11.00;99.90
21246;DHT22;10781;50.928;4.440;2024-02-04T07:29:21;10.90;99.90
21246;DHT22;10781;50.928;4.440;2024-02-04T07:31:46;10.90;99.90
21246;DHT22;10781;50.928;4.440;2024-02-04T07:34:12;11.00;99.90
21246;DHT22;10781;50.928;4.440;2024-02-04T07:36:37;10.90;99.90
21246;DHT22;10781;50.928;4.440;2024-02-04T07:39:03;11.00;99.90
21246;DHT22;10781;50.928;4.440;2024-02-04T07:41:30;10.90;99.90
21246;DHT22;10781;50.928;4.440;2024-02-04T07:43:57;11.00;99.90
21246;DHT22;10781;50.928;4.440;2024-02-04T07:46:23;11.00;99.90
21246;DHT22;10781;50.928;4.440;2024-02-04T07:48:48;11.10;99.90
21246;DHT22;10781;50.928;4.440;2024-02-04T07:51:14;11.10;99.90
21246;DHT22;10781;50.928;4.440;2024-02-04T07:53:39;11.10;99.90
21246;DHT22;10781;50.928;4.440;2024-02-04T07:56:05;11.10;99.90
21246;DHT22;10781;50.928;4.440;2024-02-04T07:58:32;11.20;99.90
21246;DHT22;10781;50.928;4.440;2024-02-04T08:00:58;11.10;99.90
21246;DHT22;10781;50.928;4.440;2024-02-04T08:03:24;11.20;99.90
21246;DHT22;10781;50.928;4.440;2024-02-04T08:05:49;11.10;99.90
21246;DHT22;10781;50.928;4.440;2024-02-04T08:08:15;11.20;99.90
21246;DHT22;10781;50.928;4.440;2024-02-04T08:10:42;11.20;99.90
21246;DHT22;10781;50.928;4.440;2024-02-04T08:13:07;11.20;99.90
21246;DHT22;10781;50.928;4.440;2024-02-04T08:15:33;11.20;99.90
21246;DHT22;10781;50.928;4.440;2024-02-04T08:17:59;11.20;99.90
21246;DHT22;10781;50.928;4.440;2024-02-04T08:20:24;11.20;99.90
21246;DHT22;10781;50.928;4.440;2024-02-04T08:22:51;11.30;99.90
21246;DHT22;10781;50.928;4.440;2024-02-04T08:25:17;11.30;99.90
21246;DHT22;10781;50.928;4.440;2024-02-04T08:27:42;11.30;99.90
21246;DHT22;10781;50.928;4.440;2024-02-04T08:30:08;11.40;99.90
21246;DHT22;10781;50.928;4.440;2024-02-04T08:32:37;11.40;99.90
21246;DHT22;10781;50.928;4.440;2024-02-04T08:35:03;11.50;99.90
21246;DHT22;10781;50.928;4.440;2024-02-04T08:37:28;11.50;99.90
21246;DHT22;10781;50.928;4.440;2024-02-04T08:39:54;11.50;99.90
21246;DHT22;10781;50.928;4.440;2024-02-04T08:42:20;11.50;99.90
21246;DHT22;10781;50.928;4.440;2024-02-04T08:44:45;11.60;99.90
21246;DHT22;10781;50.928;4.440;2024-02-04T08:47:12;11.50;99.90
21246;DHT22;10781;50.928;4.440;2024-02-04T08:49:39;11.50;99.90
21246;DHT22;10781;50.928;4.440;2024-02-04T08:52:07;11.50;99.90
21246;DHT22;10781;50.928;4.440;2024-02-04T08:54:33;11.50;99.90
21246;DHT22;10781;50.928;4.440;2024-02-04T08:56:58;11.60;99.90
21246;DHT22;10781;50.928;4.440;2024-02-04T08:59:24;11.70;99.90
21246;DHT22;10781;50.928;4.440;2024-02-04T09:01:50;11.70;99.90
21246;DHT22;10781;50.928;4.440;2024-02-04T09:04:16;11.80;99.90
21246;DHT22;10781;50.928;4.440;2024-02-04T09:06:41;11.80;99.90
21246;DHT22;10781;50.928;4.440;2024-02-04T09:09:07;11.80;99.90
21246;DHT22;10781;50.928;4.440;2024-02-04T09:11:34;11.70;99.90
21246;DHT22;10781;50.928;4.440;2024-02-04T09:14:00;11.70;99.90
21246;DHT22;10781;50.928;4.440;2024-02-04T09:16:25;11.70;99.90
21246;DHT22;10781;50.928;4.440;2024-02-04T09:18:51;11.80;99.90
21246;DHT22;10781;50.928;4.440;2024-02-04T09:21:17;11.80;99.90
21246;DHT22;10781;50.928;4.440;2024-02-04T09:23:43;11.80;99.90
21246;DHT22;10781;50.928;4.440;2024-02-04T09:26:09;11.80;99.90
21246;DHT22;10781;50.928;4.440;2024-02-04T09:28:35;11.70;99.90
21246;DHT22;10781;50.928;4.440;2024-02-04T09:31:00;11.70;99.90
21246;DHT22;10781;50.928;4.440;2024-02-04T09:33:27;11.70;99.90
21246;DHT22;10781;50.928;4.440;2024-02-04T09:35:56;11.70;99.90
21246;DHT22;10781;50.928;4.440;2024-02-04T09:38:22;11.70;99.90
21246;DHT22;10781;50.928;4.440;2024-02-04T09:40:48;11.80;99.90
21246;DHT22;10781;50.928;4.440;2024-02-04T09:43:14;11.80;99.90
21246;DHT22;10781;50.928;4.440;2024-02-04T09:45:40;11.80;99.90
21246;DHT22;10781;50.928;4.440;2024-02-04T09:48:07;11.80;99.90
21246;DHT22;10781;50.928;4.440;2024-02-04T09:50:33;11.80;99.90
21246;DHT22;10781;50.928;4.440;2024-02-04T09:52:59;11.80;99.90
21246;DHT22;10781;50.928;4.440;2024-02-04T09:55:27;11.80;99.90
21246;DHT22;10781;50.928;4.440;2024-02-04T09:57:54;11.70;99.90
21246;DHT22;10781;50.928;4.440;2024-02-04T10:00:20;11.80;99.90
21246;DHT22;10781;50.928;4.440;2024-02-04T10:02:48;11.70;99.90
21246;DHT22;10781;50.928;4.440;2024-02-04T10:05:17;11.80;99.90
21246;DHT22;10781;50.928;4.440;2024-02-04T10:07:42;11.70;99.90
21246;DHT22;10781;50.928;4.440;2024-02-04T10:10:09;11.70;99.90
21246;DHT22;10781;50.928;4.440;2024-02-04T10:12:36;11.80;99.90
21246;DHT22;10781;50.928;4.440;2024-02-04T10:15:04;11.90;99.90
21246;DHT22;10781;50.928;4.440;2024-02-04T10:17:31;12.00;99.90
21246;DHT22;10781;50.928;4.440;2024-02-04T10:19:57;12.20;99.90
21246;DHT22;10781;50.928;4.440;2024-02-04T10:22:24;12.20;99.90
21246;DHT22;10781;50.928;4.440;2024-02-04T10:24:51;12.20;99.90
21246;DHT22;10781;50.928;4.440;2024-02-04T10:27:17;12.30;99.90
21246;DHT22;10781;50.928;4.440;2024-02-04T10:29:44;12.50;99.90
21246;DHT22;10781;50.928;4.440;2024-02-04T10:32:09;12.40;99.90
21246;DHT22;10781;50.928;4.440;2024-02-04T10:34:38;12.40;99.90
21246;DHT22;10781;50.928;4.440;2024-02-04T10:37:05;12.40;99.90
21246;DHT22;10781;50.928;4.440;2024-02-04T10:39:30;12.30;99.90
21246;DHT22;10781;50.928;4.440;2024-02-04T10:42:02;12.30;99.90
21246;DHT22;10781;50.928;4.440;2024-02-04T10:44:35;12.30;99.90
21246;DHT22;10781;50.928;4.440;2024-02-04T10:47:06;12.40;99.90
21246;DHT22;10781;50.928;4.440;2024-02-04T10:49:37;12.40;99.90
21246;DHT22;10781;50.928;4.440;2024-02-04T10:52:07;12.30;99.90
21246;DHT22;10781;50.928;4.440;2024-02-04T10:54:36;12.40;99.90
21246;DHT22;10781;50.928;4.440;2024-02-04T10:57:05;12.50;99.90
21246;DHT22;10781;50.928;4.440;2024-02-04T10:59:35;12.40;99.90
21246;DHT22;10781;50.928;4.440;2024-02-04T11:02:01;12.40;99.90
21246;DHT22;10781;50.928;4.440;2024-02-04T11:04:28;12.40;99.90
21246;DHT22;10781;50.928;4.440;2024-02-04T11:06:55;12.40;99.90
21246;DHT22;10781;50.928;4.440;2024-02-04T11:09:21;12.40;99.90
21246;DHT22;10781;50.928;4.440;2024-02-04T11:11:48;12.50;99.90
21246;DHT22;10781;50.928;4.440;2024-02-04T11:14:16;12.40;99.90
21246;DHT22;10781;50.928;4.440;2024-02-04T11:22:37;12.50;99.90
21246;DHT22;10781;50.928;4.440;2024-02-04T11:25:41;12.50;99.90
21246;DHT22;10781;50.928;4.440;2024-02-04T11:27:59;12.50;99.90
21246;DHT22;10781;50.928;4.440;2024-02-04T11:30:25;12.50;99.90
21246;DHT22;10781;50.928;4.440;2024-02-04T11:32:51;12.50;99.90
21246;DHT22;10781;50.928;4.440;2024-02-04T11:35:17;12.50;99.90
21246;DHT22;10781;50.928;4.440;2024-02-04T11:37:43;12.50;99.90
21246;DHT22;10781;50.928;4.440;2024-02-04T11:40:14;12.40;99.90
21246;DHT22;10781;50.928;4.440;2024-02-04T11:42:44;12.50;99.90
21246;DHT22;10781;50.928;4.440;2024-02-04T11:45:14;12.40;99.90
21246;DHT22;10781;50.928;4.440;2024-02-04T11:47:40;12.30;99.90
21246;DHT22;10781;50.928;4.440;2024-02-04T11:50:06;12.30;99.90
21246;DHT22;10781;50.928;4.440;2024-02-04T11:52:33;12.50;99.90
21246;DHT22;10781;50.928;4.440;2024-02-04T11:54:59;12.50;99.90
21246;DHT22;10781;50.928;4.440;2024-02-04T11:57:25;12.60;99.90
21246;DHT22;10781;50.928;4.440;2024-02-04T11:59:53;12.50;99.90
21246;DHT22;10781;50.928;4.440;2024-02-04T12:02:20;12.40;99.90
21246;DHT22;10781;50.928;4.440;2024-02-04T12:04:49;12.30;99.90
21246;DHT22;10781;50.928;4.440;2024-02-04T12:07:16;12.40;99.90
21246;DHT22;10781;50.928;4.440;2024-02-04T12:09:43;12.30;99.90
21246;DHT22;10781;50.928;4.440;2024-02-04T12:12:09;12.30;99.90
21246;DHT22;10781;50.928;4.440;2024-02-04T12:14:35;12.30;99.90
21246;DHT22;10781;50.928;4.440;2024-02-04T12:17:10;12.30;99.90
21246;DHT22;10781;50.928;4.440;2024-02-04T12:19:37;12.20;99.90
21246;DHT22;10781;50.928;4.440;2024-02-04T12:22:04;12.20;99.90
21246;DHT22;10781;50.928;4.440;2024-02-04T12:24:37;12.20;99.90
21246;DHT22;10781;50.928;4.440;2024-02-04T12:27:04;12.20;99.90
21246;DHT22;10781;50.928;4.440;2024-02-04T12:29:31;12.20;99.90
21246;DHT22;10781;50.928;4.440;2024-02-04T12:32:01;12.20;99.90
21246;DHT22;10781;50.928;4.440;2024-02-04T12:34:30;12.10;99.90
21246;DHT22;10781;50.928;4.440;2024-02-04T12:37:00;12.10;99.90
21246;DHT22;10781;50.928;4.440;2024-02-04T12:39:26;12.10;99.90
21246;DHT22;10781;50.928;4.440;2024-02-04T12:41:52;12.10;99.90
21246;DHT22;10781;50.928;4.440;2024-02-04T12:44:18;12.30;99.90
21246;DHT22;10781;50.928;4.440;2024-02-04T12:46:44;12.40;99.90
21246;DHT22;10781;50.928;4.440;2024-02-04T12:49:11;12.40;99.90
21246;DHT22;10781;50.928;4.440;2024-02-04T12:51:43;12.30;99.90
21246;DHT22;10781;50.928;4.440;2024-02-04T12:54:10;12.30;99.90
21246;DHT22;10781;50.928;4.440;2024-02-04T12:59:29;12.50;99.90
21246;DHT22;10781;50.928;4.440;2024-02-04T13:01:58;12.70;99.90
21246;DHT22;10781;50.928;4.440;2024-02-04T13:04:26;12.80;99.90
21246;DHT22;10781;50.928;4.440;2024-02-04T13:06:52;12.90;99.90
21246;DHT22;10781;50.928;4.440;2024-02-04T13:09:18;12.80;99.90
21246;DHT22;10781;50.928;4.440;2024-02-04T13:11:44;12.70;99.90
21246;DHT22;10781;50.928;4.440;2024-02-04T13:14:10;12.80;99.90
21246;DHT22;10781;50.928;4.440;2024-02-04T13:16:37;12.70;99.90
21246;DHT22;10781;50.928;4.440;2024-02-04T13:19:03;12.80;99.90
21246;DHT22;10781;50.928;4.440;2024-02-04T13:21:29;12.80;99.90
21246;DHT22;10781;50.928;4.440;2024-02-04T13:23:55;12.80;99.90
21246;DHT22;10781;50.928;4.440;2024-02-04T13:26:20;12.60;99.90
21246;DHT22;10781;50.928;4.440;2024-02-04T13:28:46;12.60;99.90
21246;DHT22;10781;50.928;4.440;2024-02-04T13:31:12;12.70;99.90
21246;DHT22;10781;50.928;4.440;2024-02-04T13:33:41;12.80;99.90
21246;DHT22;10781;50.928;4.440;2024-02-04T13:36:10;12.80;99.90
21246;DHT22;10781;50.928;4.440;2024-02-04T13:38:36;12.70;99.90
21246;DHT22;10781;50.928;4.440;2024-02-04T13:41:03;12.70;99.90
21246;DHT22;10781;50.928;4.440;2024-02-04T13:43:33;12.70;99.90
21246;DHT22;10781;50.928;4.440;2024-02-04T13:46:02;12.70;99.90
21246;DHT22;10781;50.928;4.440;2024-02-04T13:48:28;12.70;99.90
21246;DHT22;10781;50.928;4.440;2024-02-04T13:50:53;12.70;99.90
21246;DHT22;10781;50.928;4.440;2024-02-04T13:53:22;12.60;99.90
21246;DHT22;10781;50.928;4.440;2024-02-04T13:55:49;12.70;99.90
21246;DHT22;10781;50.928;4.440;2024-02-04T13:58:14;12.70;99.90
21246;DHT22;10781;50.928;4.440;2024-02-04T14:00:40;12.80;99.90
21246;DHT22;10781;50.928;4.440;2024-02-04T14:03:06;12.80;99.90
21246;DHT22;10781;50.928;4.440;2024-02-04T14:05:32;12.80;99.90
21246;DHT22;10781;50.928;4.440;2024-02-04T14:07:58;12.60;99.90
21246;DHT22;10781;50.928;4.440;2024-02-04T14:10:24;12.50;99.90
21246;DHT22;10781;50.928;4.440;2024-02-04T14:12:49;12.50;99.90
21246;DHT22;10781;50.928;4.440;2024-02-04T14:15:15;12.50;99.90
21246;DHT22;10781;50.928;4.440;2024-02-04T14:17:42;12.60;99.90
21246;DHT22;10781;50.928;4.440;2024-02-04T14:20:08;12.40;99.90
21246;DHT22;10781;50.928;4.440;2024-02-04T14:22:34;12.40;99.90
21246;DHT22;10781;50.928;4.440;2024-02-04T14:25:00;12.30;99.90
21246;DHT22;10781;50.928;4.440;2024-02-04T14:27:26;12.30;99.90
21246;DHT22;10781;50.928;4.440;2024-02-04T14:29:52;12.30;99.90
21246;DHT22;10781;50.928;4.440;2024-02-04T14:32:17;12.30;99.90
21246;DHT22;10781;50.928;4.440;2024-02-04T14:34:44;12.40;99.90
21246;DHT22;10781;50.928;4.440;2024-02-04T14:37:09;12.40;99.90
21246;DHT22;10781;50.928;4.440;2024-02-04T14:39:36;12.40;99.90
21246;DHT22;10781;50.928;4.440;2024-02-04T14:42:02;12.40;99.90
21246;DHT22;10781;50.928;4.440;2024-02-04T14:44:29;12.40;99.90
21246;DHT22;10781;50.928;4.440;2024-02-04T14:46:54;12.30;99.90
21246;DHT22;10781;50.928;4.440;2024-02-04T14:49:20;12.40;99.90
21246;DHT22;10781;50.928;4.440;2024-02-04T14:51:46;12.40;99.90
21246;DHT22;10781;50.928;4.440;2024-02-04T14:54:11;12.50;99.90
21246;DHT22;10781;50.928;4.440;2024-02-04T14:56:41;12.50;99.90
21246;DHT22;10781;50.928;4.440;2024-02-04T14:59:10;12.50;99.90
21246;DHT22;10781;50.928;4.440;2024-02-04T15:01:37;12.40;99.90
21246;DHT22;10781;50.928;4.440;2024-02-04T15:04:04;12.60;99.90
21246;DHT22;10781;50.928;4.440;2024-02-04T15:06:30;12.60;99.90
21246;DHT22;10781;50.928;4.440;2024-02-04T15:08:58;12.60;99.90
21246;DHT22;10781;50.928;4.440;2024-02-04T15:11:25;12.50;99.90
21246;DHT22;10781;50.928;4.440;2024-02-04T15:13:52;12.30;99.90
21246;DHT22;10781;50.928;4.440;2024-02-04T15:16:18;12.40;99.90
21246;DHT22;10781;50.928;4.440;2024-02-04T15:18:44;12.30;99.90
21246;DHT22;10781;50.928;4.440;2024-02-04T15:21:10;12.30;99.90
21246;DHT22;10781;50.928;4.440;2024-02-04T15:23:36;12.30;99.90
21246;DHT22;10781;50.928;4.440;2024-02-04T15:26:04;12.30;99.90
21246;DHT22;10781;50.928;4.440;2024-02-04T15:28:33;12.40;99.90
21246;DHT22;10781;50.928;4.440;2024-02-04T15:30:59;12.40;99.90
21246;DHT22;10781;50.928;4.440;2024-02-04T15:33:25;12.50;99.90
21246;DHT22;10781;50.928;4.440;2024-02-04T15:35:53;12.40;99.90
21246;DHT22;10781;50.928;4.440;2024-02-04T15:38:19;12.40;99.90